sensor_id;sensor_type;location;lat;lon;timestamp;P1;durP1;ratioP1;P2;durP2;ratioP2
56381;SDS011;50261;51.150;4.470;2023-03-12T00:01:29;10.30;;;4.47;;
56381;SDS011;50261;51.150;4.470;2023-03-12T00:03:58;5.50;;;3.35;;
56381;SDS011;50261;51.150;4.470;2023-03-12T00:06:23;8.88;;;3.53;;
56381;SDS011;50261;51.150;4.470;2023-03-12T00:08:49;9.38;;;4.15;;
56381;SDS011;50261;51.150;4.470;2023-03-12T00:11:16;7.30;;;3.38;;
56381;SDS011;50261;51.150;4.470;2023-03-12T00:13:42;7.68;;;3.40;;
56381;SDS011;50261;51.150;4.470;2023-03-12T00:16:12;9.65;;;3.45;;
56381;SDS011;50261;51.150;4.470;2023-03-12T00:18:39;8.43;;;3.38;;
56381;SDS011;50261;51.150;4.470;2023-03-12T00:21:05;7.25;;;3.83;;
56381;SDS011;50261;51.150;4.470;2023-03-12T00:23:31;7.60;;;3.88;;
56381;SDS011;50261;51.150;4.470;2023-03-12T00:26:00;8.50;;;3.70;;
56381;SDS011;50261;51.150;4.470;2023-03-12T00:28:26;7.07;;;3.50;;
56381;SDS011;50261;51.150;4.470;2023-03-12T00:30:52;8.63;;;3.42;;
56381;SDS011;50261;51.150;4.470;2023-03-12T00:33:18;9.75;;;3.85;;
56381;SDS011;50261;51.150;4.470;2023-03-12T00:35:43;7.90;;;3.72;;
56381;SDS011;50261;51.150;4.470;2023-03-12T00:38:09;12.25;;;3.85;;
56381;SDS011;50261;51.150;4.470;2023-03-12T00:40:35;11.32;;;3.70;;
56381;SDS011;50261;51.150;4.470;2023-03-12T00:43:01;8.85;;;3.80;;
56381;SDS011;50261;51.150;4.470;2023-03-12T00:45:26;10.98;;;3.47;;
56381;SDS011;50261;51.150;4.470;2023-03-12T00:47:52;6.55;;;3.80;;
56381;SDS011;50261;51.150;4.470;2023-03-12T00:50:18;10.32;;;3.95;;
56381;SDS011;50261;51.150;4.470;2023-03-12T00:52:44;9.93;;;3.92;;
56381;SDS011;50261;51.150;4.470;2023-03-12T00:55:10;8.32;;;3.80;;
56381;SDS011;50261;51.150;4.470;2023-03-12T00:57:35;8.20;;;3.85;;
56381;SDS011;50261;51.150;4.470;2023-03-12T01:00:01;8.65;;;3.85;;
56381;SDS011;50261;51.150;4.470;2023-03-12T01:02:29;9.82;;;4.07;;
56381;SDS011;50261;51.150;4.470;2023-03-12T01:04:55;7.97;;;3.97;;
56381;SDS011;50261;51.150;4.470;2023-03-12T01:07:21;11.07;;;3.97;;
56381;SDS011;50261;51.150;4.470;2023-03-12T01:09:46;9.63;;;3.72;;
56381;SDS011;50261;51.150;4.470;2023-03-12T01:12:12;10.10;;;4.05;;
56381;SDS011;50261;51.150;4.470;2023-03-12T01:14:38;6.40;;;3.83;;
56381;SDS011;50261;51.150;4.470;2023-03-12T01:17:03;6.03;;;3.42;;
56381;SDS011;50261;51.150;4.470;2023-03-12T01:19:29;16.55;;;4.53;;
56381;SDS011;50261;51.150;4.470;2023-03-12T01:21:55;11.40;;;4.03;;
56381;SDS011;50261;51.150;4.470;2023-03-12T01:24:20;8.75;;;4.00;;
56381;SDS011;50261;51.150;4.470;2023-03-12T01:26:46;8.90;;;4.07;;
56381;SDS011;50261;51.150;4.470;2023-03-12T01:29:12;8.85;;;4.25;;
56381;SDS011;50261;51.150;4.470;2023-03-12T01:31:37;8.38;;;4.10;;
56381;SDS011;50261;51.150;4.470;2023-03-12T01:34:03;10.65;;;3.92;;
56381;SDS011;50261;51.150;4.470;2023-03-12T01:36:29;11.57;;;4.10;;
56381;SDS011;50261;51.150;4.470;2023-03-12T01:38:56;9.15;;;4.53;;
56381;SDS011;50261;51.150;4.470;2023-03-12T01:41:22;10.25;;;4.30;;
56381;SDS011;50261;51.150;4.470;2023-03-12T01:43:49;10.95;;;3.88;;
56381;SDS011;50261;51.150;4.470;2023-03-12T01:46:23;8.00;;;4.32;;
56381;SDS011;50261;51.150;4.470;2023-03-12T01:48:52;8.40;;;4.50;;
56381;SDS011;50261;51.150;4.470;2023-03-12T01:51:19;10.13;;;5.05;;
56381;SDS011;50261;51.150;4.470;2023-03-12T01:53:47;10.50;;;3.90;;
56381;SDS011;50261;51.150;4.470;2023-03-12T01:56:14;8.68;;;4.20;;
56381;SDS011;50261;51.150;4.470;2023-03-12T01:58:42;9.13;;;4.15;;
56381;SDS011;50261;51.150;4.470;2023-03-12T02:01:09;9.63;;;4.45;;
56381;SDS011;50261;51.150;4.470;2023-03-12T02:03:36;10.20;;;4.47;;
56381;SDS011;50261;51.150;4.470;2023-03-12T02:06:06;9.23;;;4.78;;
56381;SDS011;50261;51.150;4.470;2023-03-12T02:08:37;10.60;;;4.50;;
56381;SDS011;50261;51.150;4.470;2023-03-12T02:11:04;12.57;;;4.28;;
56381;SDS011;50261;51.150;4.470;2023-03-12T02:13:30;8.50;;;4.50;;
56381;SDS011;50261;51.150;4.470;2023-03-12T02:15:56;10.13;;;4.25;;
56381;SDS011;50261;51.150;4.470;2023-03-12T02:18:22;8.38;;;4.07;;
56381;SDS011;50261;51.150;4.470;2023-03-12T02:20:49;10.70;;;4.40;;
56381;SDS011;50261;51.150;4.470;2023-03-12T02:23:24;10.00;;;3.97;;
56381;SDS011;50261;51.150;4.470;2023-03-12T02:25:51;9.98;;;4.65;;
56381;SDS011;50261;51.150;4.470;2023-03-12T02:28:18;9.20;;;4.00;;
56381;SDS011;50261;51.150;4.470;2023-03-12T02:30:46;7.60;;;3.67;;
56381;SDS011;50261;51.150;4.470;2023-03-12T02:33:13;9.45;;;3.88;;
56381;SDS011;50261;51.150;4.470;2023-03-12T02:35:42;7.05;;;3.60;;
56381;SDS011;50261;51.150;4.470;2023-03-12T02:40:52;9.55;;;3.50;;
56381;SDS011;50261;51.150;4.470;2023-03-12T02:43:19;11.82;;;3.75;;
56381;SDS011;50261;51.150;4.470;2023-03-12T02:45:46;8.98;;;3.75;;
56381;SDS011;50261;51.150;4.470;2023-03-12T02:48:13;10.55;;;3.38;;
56381;SDS011;50261;51.150;4.470;2023-03-12T02:50:38;7.97;;;2.83;;
56381;SDS011;50261;51.150;4.470;2023-03-12T02:53:04;8.07;;;3.30;;
56381;SDS011;50261;51.150;4.470;2023-03-12T02:55:31;7.38;;;2.90;;
56381;SDS011;50261;51.150;4.470;2023-03-12T02:57:57;4.78;;;2.70;;
56381;SDS011;50261;51.150;4.470;2023-03-12T03:00:23;8.48;;;3.05;;
56381;SDS011;50261;51.150;4.470;2023-03-12T03:02:51;7.60;;;2.72;;
56381;SDS011;50261;51.150;4.470;2023-03-12T03:05:17;9.20;;;2.35;;
56381;SDS011;50261;51.150;4.470;2023-03-12T03:07:44;7.93;;;2.45;;
56381;SDS011;50261;51.150;4.470;2023-03-12T03:10:10;6.70;;;2.78;;
56381;SDS011;50261;51.150;4.470;2023-03-12T03:12:36;7.05;;;2.78;;
56381;SDS011;50261;51.150;4.470;2023-03-12T03:15:03;6.72;;;2.90;;
56381;SDS011;50261;51.150;4.470;2023-03-12T03:17:29;7.07;;;2.22;;
56381;SDS011;50261;51.150;4.470;2023-03-12T03:19:55;6.28;;;2.60;;
56381;SDS011;50261;51.150;4.470;2023-03-12T03:22:21;5.40;;;2.35;;
56381;SDS011;50261;51.150;4.470;2023-03-12T03:24:47;7.78;;;2.70;;
56381;SDS011;50261;51.150;4.470;2023-03-12T03:27:13;7.63;;;2.40;;
56381;SDS011;50261;51.150;4.470;2023-03-12T03:29:39;5.78;;;2.50;;
56381;SDS011;50261;51.150;4.470;2023-03-12T03:32:06;6.32;;;2.53;;
56381;SDS011;50261;51.150;4.470;2023-03-12T03:34:32;6.18;;;2.72;;
56381;SDS011;50261;51.150;4.470;2023-03-12T03:36:58;7.68;;;2.92;;
56381;SDS011;50261;51.150;4.470;2023-03-12T03:39:24;6.13;;;2.20;;
56381;SDS011;50261;51.150;4.470;2023-03-12T03:41:50;7.00;;;2.55;;
56381;SDS011;50261;51.150;4.470;2023-03-12T03:44:18;9.38;;;2.42;;
56381;SDS011;50261;51.150;4.470;2023-03-12T03:46:48;6.03;;;2.30;;
56381;SDS011;50261;51.150;4.470;2023-03-12T03:49:13;5.55;;;2.45;;
56381;SDS011;50261;51.150;4.470;2023-03-12T03:51:40;6.28;;;2.42;;
56381;SDS011;50261;51.150;4.470;2023-03-12T03:54:09;7.00;;;2.55;;
56381;SDS011;50261;51.150;4.470;2023-03-12T03:56:34;7.68;;;2.60;;
56381;SDS011;50261;51.150;4.470;2023-03-12T03:59:02;6.57;;;2.58;;
56381;SDS011;50261;51.150;4.470;2023-03-12T04:01:30;4.90;;;2.22;;
56381;SDS011;50261;51.150;4.470;2023-03-12T04:03:56;7.13;;;2.90;;
56381;SDS011;50261;51.150;4.470;2023-03-12T04:06:22;7.57;;;2.70;;
56381;SDS011;50261;51.150;4.470;2023-03-12T04:08:48;6.18;;;2.80;;
56381;SDS011;50261;51.150;4.470;2023-03-12T04:11:19;6.00;;;2.55;;
56381;SDS011;50261;51.150;4.470;2023-03-12T04:13:46;6.95;;;2.25;;
56381;SDS011;50261;51.150;4.470;2023-03-12T04:16:13;5.28;;;2.40;;
56381;SDS011;50261;51.150;4.470;2023-03-12T04:18:40;6.95;;;2.35;;
56381;SDS011;50261;51.150;4.470;2023-03-12T04:21:07;5.70;;;2.72;;
56381;SDS011;50261;51.150;4.470;2023-03-12T04:23:34;8.10;;;2.28;;
56381;SDS011;50261;51.150;4.470;2023-03-12T04:25:59;6.80;;;2.50;;
56381;SDS011;50261;51.150;4.470;2023-03-12T04:28:27;7.05;;;2.40;;
56381;SDS011;50261;51.150;4.470;2023-03-12T04:30:56;4.40;;;2.60;;
56381;SDS011;50261;51.150;4.470;2023-03-12T04:33:25;8.25;;;2.35;;
56381;SDS011;50261;51.150;4.470;2023-03-12T04:35:51;8.55;;;2.30;;
56381;SDS011;50261;51.150;4.470;2023-03-12T04:38:19;9.55;;;2.80;;
56381;SDS011;50261;51.150;4.470;2023-03-12T04:40:44;5.25;;;2.40;;
56381;SDS011;50261;51.150;4.470;2023-03-12T04:43:10;6.55;;;2.60;;
56381;SDS011;50261;51.150;4.470;2023-03-12T04:45:36;7.13;;;2.50;;
56381;SDS011;50261;51.150;4.470;2023-03-12T04:48:04;7.63;;;2.55;;
56381;SDS011;50261;51.150;4.470;2023-03-12T04:50:29;7.78;;;3.22;;
56381;SDS011;50261;51.150;4.470;2023-03-12T04:52:56;7.68;;;2.45;;
56381;SDS011;50261;51.150;4.470;2023-03-12T04:55:22;6.70;;;2.72;;
56381;SDS011;50261;51.150;4.470;2023-03-12T04:57:47;6.22;;;2.85;;
56381;SDS011;50261;51.150;4.470;2023-03-12T05:00:15;6.38;;;2.67;;
56381;SDS011;50261;51.150;4.470;2023-03-12T05:02:42;6.43;;;2.45;;
56381;SDS011;50261;51.150;4.470;2023-03-12T05:05:09;7.43;;;3.35;;
56381;SDS011;50261;51.150;4.470;2023-03-12T05:07:35;6.60;;;2.50;;
56381;SDS011;50261;51.150;4.470;2023-03-12T05:10:01;4.32;;;2.80;;
56381;SDS011;50261;51.150;4.470;2023-03-12T05:12:28;6.25;;;2.38;;
56381;SDS011;50261;51.150;4.470;2023-03-12T05:14:54;8.02;;;3.15;;
56381;SDS011;50261;51.150;4.470;2023-03-12T05:17:20;7.28;;;2.95;;
56381;SDS011;50261;51.150;4.470;2023-03-12T05:19:46;8.80;;;3.03;;
56381;SDS011;50261;51.150;4.470;2023-03-12T05:22:13;5.57;;;2.90;;
56381;SDS011;50261;51.150;4.470;2023-03-12T05:24:38;10.73;;;3.10;;
56381;SDS011;50261;51.150;4.470;2023-03-12T05:27:05;7.13;;;3.33;;
56381;SDS011;50261;51.150;4.470;2023-03-12T05:29:33;9.90;;;3.15;;
56381;SDS011;50261;51.150;4.470;2023-03-12T05:32:01;6.53;;;3.00;;
56381;SDS011;50261;51.150;4.470;2023-03-12T05:34:27;6.72;;;3.00;;
56381;SDS011;50261;51.150;4.470;2023-03-12T05:36:56;11.43;;;3.67;;
56381;SDS011;50261;51.150;4.470;2023-03-12T05:39:24;10.05;;;3.75;;
56381;SDS011;50261;51.150;4.470;2023-03-12T05:41:51;10.40;;;3.75;;
56381;SDS011;50261;51.150;4.470;2023-03-12T05:44:23;9.00;;;3.28;;
56381;SDS011;50261;51.150;4.470;2023-03-12T05:46:52;10.75;;;3.63;;
56381;SDS011;50261;51.150;4.470;2023-03-12T05:49:18;6.93;;;3.50;;
56381;SDS011;50261;51.150;4.470;2023-03-12T05:51:48;7.80;;;3.20;;
56381;SDS011;50261;51.150;4.470;2023-03-12T05:54:14;7.15;;;3.38;;
56381;SDS011;50261;51.150;4.470;2023-03-12T05:56:41;4.95;;;3.35;;
56381;SDS011;50261;51.150;4.470;2023-03-12T05:59:07;6.35;;;2.88;;
56381;SDS011;50261;51.150;4.470;2023-03-12T06:01:36;7.65;;;3.53;;
56381;SDS011;50261;51.150;4.470;2023-03-12T06:04:03;9.48;;;3.33;;
56381;SDS011;50261;51.150;4.470;2023-03-12T06:06:30;9.45;;;4.25;;
56381;SDS011;50261;51.150;4.470;2023-03-12T06:08:56;6.15;;;3.90;;
56381;SDS011;50261;51.150;4.470;2023-03-12T06:11:22;8.60;;;4.30;;
56381;SDS011;50261;51.150;4.470;2023-03-12T06:13:48;5.53;;;4.00;;
56381;SDS011;50261;51.150;4.470;2023-03-12T06:18:39;8.52;;;4.05;;
56381;SDS011;50261;51.150;4.470;2023-03-12T06:21:19;11.50;;;4.38;;
56381;SDS011;50261;51.150;4.470;2023-03-12T06:23:45;8.88;;;4.07;;
56381;SDS011;50261;51.150;4.470;2023-03-12T06:26:16;9.40;;;4.93;;
56381;SDS011;50261;51.150;4.470;2023-03-12T06:28:43;7.95;;;4.35;;
56381;SDS011;50261;51.150;4.470;2023-03-12T06:31:09;8.75;;;4.68;;
56381;SDS011;50261;51.150;4.470;2023-03-12T06:33:35;9.90;;;5.20;;
56381;SDS011;50261;51.150;4.470;2023-03-12T06:36:01;7.10;;;4.82;;
56381;SDS011;50261;51.150;4.470;2023-03-12T06:38:28;10.38;;;6.18;;
56381;SDS011;50261;51.150;4.470;2023-03-12T06:40:57;10.75;;;6.07;;
56381;SDS011;50261;51.150;4.470;2023-03-12T06:43:24;10.00;;;7.40;;
56381;SDS011;50261;51.150;4.470;2023-03-12T06:45:50;11.57;;;7.63;;
56381;SDS011;50261;51.150;4.470;2023-03-12T06:48:16;18.73;;;9.95;;
56381;SDS011;50261;51.150;4.470;2023-03-12T06:50:42;16.33;;;9.90;;
56381;SDS011;50261;51.150;4.470;2023-03-12T06:53:07;12.25;;;8.65;;
56381;SDS011;50261;51.150;4.470;2023-03-12T06:55:33;14.57;;;9.85;;
56381;SDS011;50261;51.150;4.470;2023-03-12T06:57:59;12.30;;;9.30;;
56381;SDS011;50261;51.150;4.470;2023-03-12T07:00:25;16.92;;;9.05;;
56381;SDS011;50261;51.150;4.470;2023-03-12T07:02:50;17.27;;;9.15;;
56381;SDS011;50261;51.150;4.470;2023-03-12T07:05:16;16.98;;;8.98;;
56381;SDS011;50261;51.150;4.470;2023-03-12T07:07:42;14.60;;;10.23;;
56381;SDS011;50261;51.150;4.470;2023-03-12T07:10:09;13.57;;;10.00;;
56381;SDS011;50261;51.150;4.470;2023-03-12T07:12:35;14.80;;;9.95;;
56381;SDS011;50261;51.150;4.470;2023-03-12T07:15:01;17.40;;;10.95;;
56381;SDS011;50261;51.150;4.470;2023-03-12T07:17:27;17.00;;;10.90;;
56381;SDS011;50261;51.150;4.470;2023-03-12T07:19:52;16.33;;;11.23;;
56381;SDS011;50261;51.150;4.470;2023-03-12T07:22:18;18.15;;;11.23;;
56381;SDS011;50261;51.150;4.470;2023-03-12T07:24:44;17.35;;;11.52;;
56381;SDS011;50261;51.150;4.470;2023-03-12T07:27:09;16.10;;;10.15;;
56381;SDS011;50261;51.150;4.470;2023-03-12T07:29:35;19.38;;;11.88;;
56381;SDS011;50261;51.150;4.470;2023-03-12T07:32:01;20.55;;;10.95;;
56381;SDS011;50261;51.150;4.470;2023-03-12T07:34:26;18.70;;;11.55;;
56381;SDS011;50261;51.150;4.470;2023-03-12T07:36:52;24.77;;;12.70;;
56381;SDS011;50261;51.150;4.470;2023-03-12T07:39:19;21.23;;;12.70;;
56381;SDS011;50261;51.150;4.470;2023-03-12T07:41:44;21.55;;;11.18;;
56381;SDS011;50261;51.150;4.470;2023-03-12T07:44:10;17.48;;;8.82;;
56381;SDS011;50261;51.150;4.470;2023-03-12T07:46:36;21.08;;;11.15;;
56381;SDS011;50261;51.150;4.470;2023-03-12T07:49:01;28.05;;;14.27;;
56381;SDS011;50261;51.150;4.470;2023-03-12T07:51:27;21.52;;;10.32;;
56381;SDS011;50261;51.150;4.470;2023-03-12T07:53:52;20.08;;;10.60;;
56381;SDS011;50261;51.150;4.470;2023-03-12T07:56:18;20.95;;;11.52;;
56381;SDS011;50261;51.150;4.470;2023-03-12T07:58:43;23.75;;;12.90;;
56381;SDS011;50261;51.150;4.470;2023-03-12T08:01:09;24.88;;;12.20;;
56381;SDS011;50261;51.150;4.470;2023-03-12T08:03:35;17.92;;;8.40;;
56381;SDS011;50261;51.150;4.470;2023-03-12T08:06:01;27.95;;;9.45;;
56381;SDS011;50261;51.150;4.470;2023-03-12T08:08:28;26.88;;;13.35;;
56381;SDS011;50261;51.150;4.470;2023-03-12T08:10:55;30.73;;;12.60;;
56381;SDS011;50261;51.150;4.470;2023-03-12T08:13:21;36.22;;;14.68;;
56381;SDS011;50261;51.150;4.470;2023-03-12T08:15:48;37.55;;;13.90;;
56381;SDS011;50261;51.150;4.470;2023-03-12T08:18:14;30.60;;;12.80;;
56381;SDS011;50261;51.150;4.470;2023-03-12T08:20:40;34.28;;;13.60;;
56381;SDS011;50261;51.150;4.470;2023-03-12T08:23:05;39.58;;;13.32;;
56381;SDS011;50261;51.150;4.470;2023-03-12T08:25:31;43.95;;;15.13;;
56381;SDS011;50261;51.150;4.470;2023-03-12T08:27:57;31.60;;;9.88;;
56381;SDS011;50261;51.150;4.470;2023-03-12T08:30:22;45.25;;;15.63;;
56381;SDS011;50261;51.150;4.470;2023-03-12T08:32:48;36.55;;;9.90;;
56381;SDS011;50261;51.150;4.470;2023-03-12T08:35:13;32.60;;;11.70;;
56381;SDS011;50261;51.150;4.470;2023-03-12T08:37:38;38.97;;;14.45;;
56381;SDS011;50261;51.150;4.470;2023-03-12T08:40:05;29.50;;;12.02;;
56381;SDS011;50261;51.150;4.470;2023-03-12T08:42:41;43.03;;;14.98;;
56381;SDS011;50261;51.150;4.470;2023-03-12T08:45:06;41.60;;;13.10;;
56381;SDS011;50261;51.150;4.470;2023-03-12T08:47:32;44.30;;;13.82;;
56381;SDS011;50261;51.150;4.470;2023-03-12T08:49:58;40.25;;;13.73;;
56381;SDS011;50261;51.150;4.470;2023-03-12T08:52:23;35.63;;;11.02;;
56381;SDS011;50261;51.150;4.470;2023-03-12T08:54:49;41.22;;;11.95;;
56381;SDS011;50261;51.150;4.470;2023-03-12T08:57:14;40.53;;;12.77;;
56381;SDS011;50261;51.150;4.470;2023-03-12T08:59:40;36.85;;;11.10;;
56381;SDS011;50261;51.150;4.470;2023-03-12T09:02:05;28.17;;;9.48;;
56381;SDS011;50261;51.150;4.470;2023-03-12T09:04:31;32.40;;;7.80;;
56381;SDS011;50261;51.150;4.470;2023-03-12T09:06:56;37.10;;;10.38;;
56381;SDS011;50261;51.150;4.470;2023-03-12T09:09:22;36.90;;;10.80;;
56381;SDS011;50261;51.150;4.470;2023-03-12T09:11:47;23.80;;;7.82;;
56381;SDS011;50261;51.150;4.470;2023-03-12T09:14:13;36.05;;;10.23;;
56381;SDS011;50261;51.150;4.470;2023-03-12T09:16:38;37.28;;;10.32;;
56381;SDS011;50261;51.150;4.470;2023-03-12T09:19:04;35.45;;;9.35;;
56381;SDS011;50261;51.150;4.470;2023-03-12T09:21:29;25.58;;;7.50;;
56381;SDS011;50261;51.150;4.470;2023-03-12T09:23:55;35.72;;;8.90;;
56381;SDS011;50261;51.150;4.470;2023-03-12T09:26:22;25.83;;;6.78;;
56381;SDS011;50261;51.150;4.470;2023-03-12T09:28:48;33.22;;;8.80;;
56381;SDS011;50261;51.150;4.470;2023-03-12T09:31:14;25.50;;;8.27;;
56381;SDS011;50261;51.150;4.470;2023-03-12T09:33:40;28.77;;;6.80;;
56381;SDS011;50261;51.150;4.470;2023-03-12T09:36:06;27.33;;;8.05;;
56381;SDS011;50261;51.150;4.470;2023-03-12T09:38:32;31.77;;;8.35;;
56381;SDS011;50261;51.150;4.470;2023-03-12T09:41:00;27.70;;;7.22;;
56381;SDS011;50261;51.150;4.470;2023-03-12T09:43:37;33.50;;;7.78;;
56381;SDS011;50261;51.150;4.470;2023-03-12T09:46:07;34.45;;;8.18;;
56381;SDS011;50261;51.150;4.470;2023-03-12T09:48:35;18.75;;;5.22;;
56381;SDS011;50261;51.150;4.470;2023-03-12T09:51:04;25.38;;;6.45;;
56381;SDS011;50261;51.150;4.470;2023-03-12T09:55:56;35.83;;;8.48;;
56381;SDS011;50261;51.150;4.470;2023-03-12T10:00:48;35.90;;;7.03;;
56381;SDS011;50261;51.150;4.470;2023-03-12T10:03:25;19.42;;;5.45;;
56381;SDS011;50261;51.150;4.470;2023-03-12T10:08:28;30.42;;;7.35;;
56381;SDS011;50261;51.150;4.470;2023-03-12T10:16:06;29.23;;;6.60;;
56381;SDS011;50261;51.150;4.470;2023-03-12T10:21:25;27.92;;;5.75;;
56381;SDS011;50261;51.150;4.470;2023-03-12T10:26:45;23.95;;;5.20;;
56381;SDS011;50261;51.150;4.470;2023-03-12T10:29:20;21.50;;;4.57;;
56381;SDS011;50261;51.150;4.470;2023-03-12T10:32:00;29.00;;;6.83;;
56381;SDS011;50261;51.150;4.470;2023-03-12T10:34:46;33.80;;;7.07;;
56381;SDS011;50261;51.150;4.470;2023-03-12T10:39:46;35.83;;;6.47;;
56381;SDS011;50261;51.150;4.470;2023-03-12T10:42:16;28.23;;;4.53;;
56381;SDS011;50261;51.150;4.470;2023-03-12T10:44:42;32.92;;;5.88;;
56381;SDS011;50261;51.150;4.470;2023-03-12T10:49:35;30.95;;;6.00;;
56381;SDS011;50261;51.150;4.470;2023-03-12T10:52:03;29.50;;;6.50;;
56381;SDS011;50261;51.150;4.470;2023-03-12T10:54:34;39.90;;;7.20;;
56381;SDS011;50261;51.150;4.470;2023-03-12T10:57:00;30.40;;;7.20;;
56381;SDS011;50261;51.150;4.470;2023-03-12T10:59:30;28.13;;;5.57;;
56381;SDS011;50261;51.150;4.470;2023-03-12T11:01:57;23.00;;;4.22;;
56381;SDS011;50261;51.150;4.470;2023-03-12T11:09:34;30.90;;;6.18;;
56381;SDS011;50261;51.150;4.470;2023-03-12T11:12:00;31.85;;;5.95;;
56381;SDS011;50261;51.150;4.470;2023-03-12T11:14:27;22.15;;;4.78;;
56381;SDS011;50261;51.150;4.470;2023-03-12T11:16:54;20.17;;;5.30;;
56381;SDS011;50261;51.150;4.470;2023-03-12T11:19:33;39.38;;;7.20;;
56381;SDS011;50261;51.150;4.470;2023-03-12T11:22:00;26.35;;;6.00;;
56381;SDS011;50261;51.150;4.470;2023-03-12T11:24:27;21.65;;;4.45;;
56381;SDS011;50261;51.150;4.470;2023-03-12T11:27:39;26.45;;;6.40;;
56381;SDS011;50261;51.150;4.470;2023-03-12T11:29:41;31.65;;;6.20;;
56381;SDS011;50261;51.150;4.470;2023-03-12T11:34:37;31.55;;;6.40;;
56381;SDS011;50261;51.150;4.470;2023-03-12T11:37:12;26.10;;;4.75;;
56381;SDS011;50261;51.150;4.470;2023-03-12T11:50:10;24.77;;;4.88;;
56381;SDS011;50261;51.150;4.470;2023-03-12T12:00:43;29.35;;;5.25;;
56381;SDS011;50261;51.150;4.470;2023-03-12T12:08:17;28.30;;;6.43;;
56381;SDS011;50261;51.150;4.470;2023-03-12T12:10:51;28.67;;;6.15;;
56381;SDS011;50261;51.150;4.470;2023-03-12T12:23:56;30.77;;;6.25;;
56381;SDS011;50261;51.150;4.470;2023-03-12T12:29:13;16.55;;;4.10;;
56381;SDS011;50261;51.150;4.470;2023-03-12T12:31:58;35.22;;;7.18;;
56381;SDS011;50261;51.150;4.470;2023-03-12T12:34:35;29.50;;;6.50;;
56381;SDS011;50261;51.150;4.470;2023-03-12T12:39:38;45.53;;;7.90;;
56381;SDS011;50261;51.150;4.470;2023-03-12T12:42:07;39.33;;;6.68;;
56381;SDS011;50261;51.150;4.470;2023-03-12T12:44:40;36.33;;;5.90;;
56381;SDS011;50261;51.150;4.470;2023-03-12T12:47:08;35.95;;;7.75;;
56381;SDS011;50261;51.150;4.470;2023-03-12T12:49:42;42.25;;;7.05;;
56381;SDS011;50261;51.150;4.470;2023-03-12T12:52:10;31.65;;;6.75;;
56381;SDS011;50261;51.150;4.470;2023-03-12T12:57:13;29.17;;;5.22;;
56381;SDS011;50261;51.150;4.470;2023-03-12T13:00:23;28.30;;;5.75;;
56381;SDS011;50261;51.150;4.470;2023-03-12T13:02:31;25.80;;;4.85;;
56381;SDS011;50261;51.150;4.470;2023-03-12T13:04:59;21.70;;;4.70;;
56381;SDS011;50261;51.150;4.470;2023-03-12T13:09:52;24.00;;;4.57;;
56381;SDS011;50261;51.150;4.470;2023-03-12T13:12:19;26.45;;;5.35;;
56381;SDS011;50261;51.150;4.470;2023-03-12T13:14:47;25.30;;;4.60;;
56381;SDS011;50261;51.150;4.470;2023-03-12T13:17:29;14.70;;;3.67;;
56381;SDS011;50261;51.150;4.470;2023-03-12T13:20:00;12.30;;;3.15;;
56381;SDS011;50261;51.150;4.470;2023-03-12T13:22:41;26.05;;;4.97;;
56381;SDS011;50261;51.150;4.470;2023-03-12T13:28:01;23.42;;;4.95;;
56381;SDS011;50261;51.150;4.470;2023-03-12T13:30:45;19.90;;;3.80;;
56381;SDS011;50261;51.150;4.470;2023-03-12T13:33:44;11.15;;;2.55;;
56381;SDS011;50261;51.150;4.470;2023-03-12T13:39:00;17.70;;;3.15;;
56381;SDS011;50261;51.150;4.470;2023-03-12T13:41:46;23.05;;;4.38;;
56381;SDS011;50261;51.150;4.470;2023-03-12T13:47:01;21.55;;;4.57;;
56381;SDS011;50261;51.150;4.470;2023-03-12T13:49:33;21.02;;;4.70;;
56381;SDS011;50261;51.150;4.470;2023-03-12T13:52:01;10.10;;;2.47;;
56381;SDS011;50261;51.150;4.470;2023-03-12T13:54:33;27.58;;;6.85;;
56381;SDS011;50261;51.150;4.470;2023-03-12T13:57:09;22.70;;;5.07;;
56381;SDS011;50261;51.150;4.470;2023-03-12T13:59:35;22.83;;;5.20;;
56381;SDS011;50261;51.150;4.470;2023-03-12T14:02:13;10.38;;;2.92;;
56381;SDS011;50261;51.150;4.470;2023-03-12T14:04:43;24.23;;;4.45;;
56381;SDS011;50261;51.150;4.470;2023-03-12T14:07:30;21.63;;;4.78;;
56381;SDS011;50261;51.150;4.470;2023-03-12T14:10:20;24.30;;;5.40;;
56381;SDS011;50261;51.150;4.470;2023-03-12T14:15:21;18.95;;;4.07;;
56381;SDS011;50261;51.150;4.470;2023-03-12T14:17:56;24.02;;;5.10;;
56381;SDS011;50261;51.150;4.470;2023-03-12T14:20:23;24.80;;;5.72;;
56381;SDS011;50261;51.150;4.470;2023-03-12T14:23:11;26.50;;;4.90;;
56381;SDS011;50261;51.150;4.470;2023-03-12T14:25:38;20.73;;;3.33;;
56381;SDS011;50261;51.150;4.470;2023-03-12T14:28:19;25.73;;;5.75;;
56381;SDS011;50261;51.150;4.470;2023-03-12T14:31:07;14.60;;;3.40;;
56381;SDS011;50261;51.150;4.470;2023-03-12T14:34:14;23.83;;;4.30;;
56381;SDS011;50261;51.150;4.470;2023-03-12T14:36:21;28.35;;;6.10;;
56381;SDS011;50261;51.150;4.470;2023-03-12T14:38:48;18.25;;;3.60;;
56381;SDS011;50261;51.150;4.470;2023-03-12T14:41:15;28.58;;;5.60;;
56381;SDS011;50261;51.150;4.470;2023-03-12T14:43:42;21.67;;;4.30;;
56381;SDS011;50261;51.150;4.470;2023-03-12T14:46:14;25.80;;;5.45;;
56381;SDS011;50261;51.150;4.470;2023-03-12T14:48:40;32.75;;;4.93;;
56381;SDS011;50261;51.150;4.470;2023-03-12T14:51:06;24.42;;;4.38;;
56381;SDS011;50261;51.150;4.470;2023-03-12T14:53:33;25.17;;;5.47;;
56381;SDS011;50261;51.150;4.470;2023-03-12T14:55:59;24.95;;;4.45;;
56381;SDS011;50261;51.150;4.470;2023-03-12T14:58:25;27.65;;;4.25;;
56381;SDS011;50261;51.150;4.470;2023-03-12T15:00:55;22.52;;;4.55;;
56381;SDS011;50261;51.150;4.470;2023-03-12T15:03:24;29.43;;;4.60;;
56381;SDS011;50261;51.150;4.470;2023-03-12T15:05:51;22.15;;;4.88;;
56381;SDS011;50261;51.150;4.470;2023-03-12T15:08:17;23.40;;;3.80;;
56381;SDS011;50261;51.150;4.470;2023-03-12T15:10:47;29.17;;;4.47;;
56381;SDS011;50261;51.150;4.470;2023-03-12T15:13:13;23.85;;;4.00;;
56381;SDS011;50261;51.150;4.470;2023-03-12T15:15:51;26.98;;;4.20;;
56381;SDS011;50261;51.150;4.470;2023-03-12T15:18:18;30.15;;;5.53;;
56381;SDS011;50261;51.150;4.470;2023-03-12T15:20:48;14.35;;;4.07;;
56381;SDS011;50261;51.150;4.470;2023-03-12T15:23:14;21.42;;;4.80;;
56381;SDS011;50261;51.150;4.470;2023-03-12T15:25:40;21.17;;;4.35;;
56381;SDS011;50261;51.150;4.470;2023-03-12T15:30:32;27.05;;;4.93;;
56381;SDS011;50261;51.150;4.470;2023-03-12T15:33:21;16.77;;;3.60;;
56381;SDS011;50261;51.150;4.470;2023-03-12T15:38:26;23.83;;;4.13;;
56381;SDS011;50261;51.150;4.470;2023-03-12T15:40:53;16.80;;;2.90;;
56381;SDS011;50261;51.150;4.470;2023-03-12T15:43:21;25.77;;;4.63;;
56381;SDS011;50261;51.150;4.470;2023-03-12T15:45:47;21.27;;;4.25;;
56381;SDS011;50261;51.150;4.470;2023-03-12T15:48:37;27.38;;;5.03;;
56381;SDS011;50261;51.150;4.470;2023-03-12T15:51:13;19.73;;;4.07;;
56381;SDS011;50261;51.150;4.470;2023-03-12T15:53:41;26.30;;;4.53;;
56381;SDS011;50261;51.150;4.470;2023-03-12T15:58:37;22.90;;;4.22;;
56381;SDS011;50261;51.150;4.470;2023-03-12T16:03:36;15.43;;;3.13;;
56381;SDS011;50261;51.150;4.470;2023-03-12T16:06:02;15.52;;;3.33;;
56381;SDS011;50261;51.150;4.470;2023-03-12T16:08:32;19.80;;;4.60;;
56381;SDS011;50261;51.150;4.470;2023-03-12T16:11:00;25.48;;;5.30;;
56381;SDS011;50261;51.150;4.470;2023-03-12T16:13:26;27.88;;;4.45;;
56381;SDS011;50261;51.150;4.470;2023-03-12T16:15:55;22.77;;;3.53;;
56381;SDS011;50261;51.150;4.470;2023-03-12T16:18:22;25.75;;;5.38;;
56381;SDS011;50261;51.150;4.470;2023-03-12T16:20:48;29.05;;;6.50;;
56381;SDS011;50261;51.150;4.470;2023-03-12T16:23:14;31.13;;;6.43;;
56381;SDS011;50261;51.150;4.470;2023-03-12T16:25:41;30.70;;;5.90;;